Etusivu
METAR-TAF:

METAR-TAF

Lentoasemat :

Peer, Belgia

Leveyspiiri: 51-10N, Pituuspiiri: 005-28E, korkeus merenpinnasta: 55 m

Tämänhetkinen sää

Tämä raportti tehtiin 1 tunti ja 53 minuuttia sitten, kello 13.55 UTC
Tuuli 3 kn pohjoisesta
Lämpötila 17°C
Kosteus 48%
Ilmanpaine 1033 hPa
Näkyvyys 10 km tai enemmän
Hajanaisia pilviä 30000 ft:n korkeudessa

METAR: EBBL 211355Z 01003KT 9999 SCT300 17/06 Q1033 BLU BLU

Aika: 16:48 (15:48 UTC)

Sääennuste

Tämä raportti tehtiin 4 tuntia ja 7 minuuttia sitten, kello 11.41 UTC
Ennuste voimassa 21. päivästä klo 13 UTC - 21. päivään klo 22 UTC
Tuuli 6 kn lännestä
Näkyvyys 10 km tai enemmän
Muutamia pilviä 2500 ft:n korkeudessa
Tulossa
21. päivästä klo 20 UTC - 21. päivään klo 22 UTC
Tuuli 3 kn eri suunnista
Näkyvyys: 4000 m
Muutamia pilviä 30000 ft:n korkeudessa
utua

TAF: EBBL 211141Z 2113/2122 28006KT 9999 FEW025 BECMG 2120/2122 VRB03KT 4000 BR FEW300

Säähavainnot ja -ennusteet yli 4000 lentoasemalta (METAR- ja TAF-raportit).

Käytössä olevat sääasemat on merkitty karttaan keltaisilla ja punaisilla pisteillä.

Aseta hiiri pisteen päälle nähdäksesi sääaseman nimen.

Klikkaa sitten nähdäksesi säähavainnot ja -ennusteet.

Kartan vaihtaminen: klikkaa mustalla rastilla varustettuja vihreitä pisteitä, niin voit zoomata sisään; viivalla varustettua vihreää pistettä, niin voit zoomata ulos tai vihreitä nuolia, niin pääset viereisille kartoille.


METAR-TAF: